Weather at Gimo gräsfält

Public forecast

Using degrees Celsius for public forecast. Weather courtesy of forecast.io.

Closest aviation weather report (METAR) to Gimo gräsfält

Closest report is Stockholm-Arlanda Airport, 32.6 nm (60.4 km) SSW. Retrieved 2022/05/20 06:20 UTC (21 minutes ago):

ESSA 200620Z 05008KT 9999 -RA BKN006 BKN064 09/08 Q1013 TEMPO BKN010

Closest aviation forecast (TAF) to Gimo gräsfält

Closest forecast is Stockholm-Arlanda Airport, 32.6 nm (60.4 km) SSW. Retrieved 2022/05/20 06:00 UTC (41 minutes ago):

TAF ESSA 200530Z 2006/2106 04005KT 9999 -RA FEW005 BKN045 PROB40 2006/2011 4000 RA BKN005 PROB40 2011/2015 BKN007